createdAt,value
2018-08-02T00:00:18.994Z,149355.00
2018-08-02T00:02:49.898Z,149355.00
2018-08-02T00:05:21.293Z,149366.22
2018-08-02T00:07:52.491Z,149362.47
2018-08-02T00:10:23.837Z,149372.45
2018-08-02T00:12:55.121Z,149348.75
2018-08-02T00:15:26.433Z,149378.69
2018-08-02T00:17:58.563Z,149388.72
2018-08-02T00:20:29.563Z,149372.45
2018-08-02T00:23:00.617Z,149369.97
2018-08-02T00:25:31.807Z,149366.22
2018-08-02T00:28:03.757Z,149376.20
2018-08-02T00:30:35.756Z,149381.19
2018-08-02T00:33:07.010Z,149381.19
2018-08-02T00:35:39.241Z,149381.19
2018-08-02T00:38:10.739Z,149373.70
2018-08-02T00:40:42.036Z,149379.94
2018-08-02T00:43:13.252Z,149367.47
2018-08-02T00:45:45.356Z,149331.25
2018-08-02T00:48:16.640Z,149386.17
2018-08-02T00:50:47.860Z,149383.69
2018-08-02T00:53:21.035Z,149377.44
2018-08-02T00:55:53.204Z,149371.20
2018-08-02T00:58:25.703Z,149371.20
2018-08-02T01:00:57.910Z,149368.72
2018-08-02T01:03:29.849Z,149382.44
2018-08-02T01:06:00.871Z,149357.48
2018-08-02T01:08:32.056Z,149353.75
2018-08-02T01:11:03.320Z,149368.72
2018-08-02T01:13:34.760Z,149368.72
2018-08-02T01:16:06.160Z,149374.95
2018-08-02T01:18:37.220Z,149350.00
2018-08-02T01:21:09.518Z,149361.23
2018-08-02T01:23:40.524Z,149350.00
2018-08-02T01:26:11.537Z,149368.72
2018-08-02T01:28:42.765Z,149335.00
2018-08-02T01:31:14.825Z,149351.25
2018-08-02T01:33:46.923Z,149337.48
2018-08-02T01:36:17.931Z,149335.00
2018-08-02T01:38:49.435Z,149345.02
2018-08-02T01:41:20.945Z,149341.28
2018-08-02T01:43:52.528Z,149361.23
2018-08-02T01:46:23.839Z,149346.27
2018-08-02T01:48:55.296Z,149353.75
2018-08-02T01:51:26.423Z,149356.25
2018-08-02T01:53:58.412Z,149358.73
2018-08-02T01:56:29.670Z,149350.00
2018-08-02T01:59:00.794Z,149346.27
2018-08-02T02:01:32.228Z,149351.25
2018-08-02T02:04:03.384Z,149346.27
2018-08-02T02:06:34.626Z,149341.28
2018-08-02T02:09:07.147Z,149350.00
2018-08-02T02:11:38.491Z,149341.28
2018-08-02T02:14:10.237Z,149342.53
2018-08-02T02:16:41.205Z,149322.53
2018-08-02T02:19:12.630Z,149321.28
2018-08-02T02:21:43.777Z,149323.77
2018-08-02T02:24:15.748Z,149315.03
2018-08-02T02:26:47.750Z,149316.28
2018-08-02T02:29:19.040Z,149306.27
2018-08-02T02:31:50.337Z,149330.00
2018-08-02T02:34:21.537Z,149301.28
2018-08-02T02:36:53.476Z,149311.30
2018-08-02T02:39:24.720Z,149320.03
2018-08-02T02:41:58.216Z,149301.28
2018-08-02T02:44:29.977Z,149306.27
2018-08-02T02:47:01.317Z,149288.75
2018-08-02T02:49:32.299Z,149291.25
2018-08-02T02:52:03.602Z,149301.28
2018-08-02T02:54:34.641Z,149303.77
2018-08-02T02:57:05.920Z,149296.28
2018-08-02T02:59:36.922Z,149297.53
2018-08-02T03:02:08.986Z,149311.30
2018-08-02T03:04:40.274Z,149302.52
2018-08-02T03:07:12.414Z,149316.28
2018-08-02T03:09:43.631Z,149313.78
2018-08-02T03:12:15.752Z,149322.53
2018-08-02T03:14:46.553Z,149330.00
2018-08-02T03:17:18.946Z,149342.53
2018-08-02T03:19:50.004Z,149350.00
2018-08-02T03:22:21.053Z,149362.47
2018-08-02T03:24:52.443Z,149362.47
2018-08-02T03:27:23.515Z,149359.98
2018-08-02T03:29:55.754Z,149394.95
2018-08-02T03:32:27.882Z,149491.11
2018-08-02T03:34:59.535Z,149609.80
2018-08-02T03:37:30.893Z,149662.27
2018-08-02T03:40:02.143Z,149719.84
2018-08-02T03:42:33.472Z,149747.31
2018-08-02T03:45:04.577Z,149699.81
2018-08-02T03:47:35.808Z,149826.06
2018-08-02T03:50:07.667Z,149858.58
2018-08-02T03:52:38.936Z,149946.11
2018-08-02T03:55:10.234Z,150032.45
2018-08-02T03:57:42.739Z,150072.50
2018-08-02T04:00:13.909Z,150185.13
2018-08-02T04:02:45.548Z,150188.86
2018-08-02T04:05:16.617Z,150232.66
2018-08-02T04:07:48.722Z,150296.53
2018-08-02T04:10:19.881Z,150409.22
2018-08-02T04:12:51.082Z,150456.78
2018-08-02T04:15:23.242Z,150496.91
2018-08-02T04:17:54.525Z,150455.53
2018-08-02T04:20:25.955Z,150537.00
2018-08-02T04:22:57.001Z,150531.98
2018-08-02T04:25:28.169Z,150516.92
2018-08-02T04:28:00.216Z,150597.09
2018-08-02T04:30:32.281Z,150554.50
2018-08-02T04:33:03.702Z,150629.69
2018-08-02T04:35:34.834Z,150594.59
2018-08-02T04:38:06.226Z,150540.75
2018-08-02T04:40:37.330Z,150664.77
2018-08-02T04:43:08.627Z,150612.11
2018-08-02T04:45:40.401Z,150734.95
2018-08-02T04:48:12.730Z,150846.52
2018-08-02T04:50:43.980Z,150746.22
2018-08-02T04:53:15.568Z,150796.39
2018-08-02T04:55:47.524Z,150737.45
2018-08-02T04:58:19.219Z,150674.83
2018-08-02T05:00:50.123Z,150816.47
2018-08-02T05:03:21.512Z,150900.41
2018-08-02T05:05:52.723Z,150939.28
2018-08-02T05:08:24.137Z,151117.44
2018-08-02T05:10:55.329Z,151117.44
2018-08-02T05:13:27.340Z,150925.50
2018-08-02T05:15:58.700Z,151017.06
2018-08-02T05:18:34.044Z,151111.17
2018-08-02T05:21:05.473Z,151087.31
2018-08-02T05:23:37.529Z,151111.17
2018-08-02T05:26:14.919Z,151338.28
2018-08-02T05:28:47.023Z,151394.80
2018-08-02T05:31:18.312Z,151402.31
2018-08-02T05:33:49.594Z,151300.62
2018-08-02T05:36:21.494Z,151402.31
2018-08-02T05:38:52.624Z,151510.30
2018-08-02T05:41:23.922Z,151740.14
2018-08-02T05:43:58.136Z,151743.91
2018-08-02T05:46:29.230Z,151715.00
2018-08-02T05:49:01.273Z,151591.91
2018-08-02T05:51:32.671Z,151738.89
2018-08-02T05:54:03.928Z,151657.23
2018-08-02T05:56:35.108Z,151643.44
2018-08-02T05:59:09.725Z,151624.58
2018-08-02T06:01:41.029Z,151706.22
2018-08-02T06:04:12.659Z,151613.23
2018-08-02T06:06:43.855Z,151657.23
2018-08-02T06:09:14.999Z,151732.61
2018-08-02T06:11:46.706Z,151387.28
2018-08-02T06:14:18.179Z,151753.94
2018-08-02T06:16:49.436Z,151702.45
2018-08-02T06:19:20.836Z,151973.91
2018-08-02T06:21:51.810Z,152006.61
2018-08-02T06:24:23.131Z,151980.19
2018-08-02T06:26:54.198Z,151986.47
2018-08-02T06:29:25.609Z,151756.45
2018-08-02T06:31:57.110Z,151960.11
2018-08-02T06:34:29.064Z,151978.94
2018-08-02T06:37:03.578Z,151741.39
2018-08-02T06:39:35.740Z,151782.91
2018-08-02T06:42:07.868Z,151666.02
2018-08-02T06:44:39.668Z,151628.34
2018-08-02T06:47:11.503Z,151672.34
2018-08-02T06:49:42.709Z,151794.19
2018-08-02T06:52:13.890Z,151698.69
2018-08-02T06:54:45.138Z,151694.92
2018-08-02T06:57:16.318Z,151728.84
2018-08-02T06:59:48.312Z,151913.62
2018-08-02T07:02:19.494Z,152129.80
2018-08-02T07:04:51.347Z,152343.69
2018-08-02T07:07:23.411Z,152366.30
2018-08-02T07:09:55.174Z,152206.56
2018-08-02T07:12:27.009Z,152024.19
2018-08-02T07:14:58.878Z,152256.86
2018-08-02T07:17:30.671Z,152500.95
2018-08-02T07:20:01.877Z,152329.81
2018-08-02T07:22:33.111Z,152534.98
2018-08-02T07:25:04.480Z,152540.02
2018-08-02T07:27:36.409Z,152190.19
2018-08-02T07:30:09.313Z,152322.28
2018-08-02T07:32:40.540Z,152478.28
2018-08-02T07:35:11.959Z,152545.05
2018-08-02T07:37:43.091Z,152237.97
2018-08-02T07:40:14.285Z,152148.69
2018-08-02T07:44:14.491Z,152146.19
2018-08-02T07:46:45.842Z,151911.09
2018-08-02T07:49:17.423Z,152059.44
2018-08-02T07:51:48.745Z,152136.09
2018-08-02T07:54:19.735Z,151895.94
2018-08-02T07:56:51.934Z,151767.84
2018-08-02T07:59:28.149Z,151638.42
2018-08-02T08:01:59.341Z,151427.39
2018-08-02T08:04:30.355Z,151299.38
2018-08-02T08:07:03.516Z,151214.02
2018-08-02T08:09:35.957Z,151089.81
2018-08-02T08:12:07.548Z,151043.37
2018-08-02T08:14:39.804Z,151030.84
2018-08-02T08:17:11.020Z,150842.75
2018-08-02T08:19:42.159Z,150806.41
2018-08-02T08:22:14.151Z,150811.47
2018-08-02T08:24:47.063Z,150777.56
2018-08-02T08:27:19.429Z,150830.23
2018-08-02T08:29:51.685Z,150835.25
2018-08-02T08:32:23.953Z,150827.73
2018-08-02T08:34:55.068Z,150800.14
2018-08-02T08:37:26.142Z,150788.83
2018-08-02T08:39:57.423Z,150884.13
2018-08-02T08:42:28.638Z,150914.22
2018-08-02T08:44:59.740Z,150909.22
2018-08-02T08:47:31.164Z,150887.89
2018-08-02T08:50:02.241Z,150934.27
2018-08-02T08:52:33.379Z,150832.75
2018-08-02T08:55:04.667Z,150802.66
2018-08-02T08:57:36.172Z,150765.05
2018-08-02T09:00:08.632Z,150817.72
2018-08-02T09:02:41.761Z,150870.34
2018-08-02T09:05:12.949Z,150934.27
2018-08-02T09:07:43.980Z,150985.70
2018-08-02T09:10:14.971Z,150983.20
2018-08-02T09:12:47.456Z,150991.97
2018-08-02T09:15:20.151Z,150877.87
2018-08-02T09:17:51.432Z,150902.91
2018-08-02T09:20:22.897Z,150964.41
2018-08-02T09:22:54.091Z,150949.34
2018-08-02T09:25:25.018Z,150978.19
2018-08-02T09:27:57.456Z,151033.36
2018-08-02T09:30:28.626Z,150983.20
2018-08-02T09:33:01.020Z,150990.72
2018-08-02T09:35:32.908Z,150944.33
2018-08-02T09:38:04.151Z,150840.25
2018-08-02T09:40:36.486Z,150881.63
2018-08-02T09:43:07.649Z,150851.53
2018-08-02T09:45:40.017Z,150831.50
2018-08-02T09:48:11.436Z,150737.45
2018-08-02T09:50:43.150Z,150713.62
2018-08-02T09:53:14.339Z,150719.94
2018-08-02T09:58:22.010Z,150746.22
2018-08-02T10:00:58.055Z,150749.97
2018-08-02T10:03:29.893Z,150766.30
2018-08-02T10:06:01.085Z,150780.06
2018-08-02T10:08:33.182Z,150847.77
2018-08-02T10:11:05.821Z,150917.98
2018-08-02T10:13:37.956Z,150964.41
2018-08-02T10:16:09.589Z,150970.67
2018-08-02T10:18:40.712Z,150892.89
2018-08-02T10:21:12.379Z,150920.48
2018-08-02T10:23:43.504Z,150914.22
2018-08-02T10:26:14.683Z,150938.03
2018-08-02T10:28:47.155Z,150940.53
2018-08-02T10:31:18.269Z,150970.67
2018-08-02T10:33:50.188Z,150881.63
2018-08-02T10:36:21.313Z,150849.02
2018-08-02T10:38:53.268Z,150822.72
2018-08-02T10:41:24.373Z,150749.97
2018-08-02T10:43:56.284Z,150800.14
2018-08-02T10:46:27.344Z,150785.08
2018-08-02T10:48:58.677Z,150761.23
2018-08-02T10:51:29.980Z,150800.14
2018-08-02T10:54:01.282Z,150854.03
2018-08-02T10:56:32.957Z,150813.97
2018-08-02T10:59:04.472Z,150724.94
2018-08-02T11:01:35.713Z,150729.95
2018-08-02T11:04:08.317Z,150782.56
2018-08-02T11:06:40.467Z,150902.91
2018-08-02T11:09:13.339Z,150902.91
2018-08-02T11:11:44.622Z,150761.23
2018-08-02T11:14:15.886Z,150688.59
2018-08-02T11:16:46.982Z,150691.09
2018-08-02T11:19:18.436Z,150757.48
2018-08-02T11:21:50.397Z,150775.06
2018-08-02T11:24:21.597Z,150787.58
2018-08-02T11:26:53.210Z,150816.47
2018-08-02T11:29:24.281Z,150832.75
2018-08-02T11:31:56.329Z,150875.36
2018-08-02T11:34:28.619Z,150840.25
2018-08-02T11:37:00.486Z,150857.78
2018-08-02T11:39:32.579Z,150718.69
2018-08-02T11:42:05.097Z,150746.22
2018-08-02T11:44:36.400Z,150749.97
2018-08-02T11:47:07.480Z,150778.81
2018-08-02T11:49:38.524Z,150810.16
2018-08-02T11:52:10.018Z,150785.08
2018-08-02T11:54:41.153Z,150805.16
2018-08-02T11:57:12.448Z,150832.75
2018-08-02T11:59:49.528Z,150734.95
2018-08-02T12:02:20.793Z,150736.20
2018-08-02T12:04:52.993Z,150677.34
2018-08-02T12:07:24.344Z,150697.36
2018-08-02T12:09:55.373Z,150721.19
2018-08-02T12:12:28.620Z,150737.45
2018-08-02T12:14:59.826Z,150741.22
2018-08-02T12:17:30.959Z,150734.95
2018-08-02T12:20:02.278Z,150713.62
2018-08-02T12:22:33.433Z,150712.38
2018-08-02T12:25:04.853Z,150652.25
2018-08-02T12:27:36.158Z,150696.11
2018-08-02T12:30:07.712Z,150737.45
2018-08-02T12:32:40.038Z,150732.45
2018-08-02T12:35:13.819Z,150742.47
2018-08-02T12:37:45.699Z,150759.98
2018-08-02T12:40:16.853Z,150791.33
2018-08-02T12:42:48.147Z,150806.41
2018-08-02T12:45:20.988Z,150820.22
2018-08-02T12:47:52.310Z,150790.08
2018-08-02T12:50:23.566Z,150788.83
2018-08-02T12:52:54.789Z,150827.73
2018-08-02T12:55:26.142Z,150818.97
2018-08-02T12:57:57.441Z,150827.73
2018-08-02T13:00:28.560Z,150837.75
2018-08-02T13:03:00.437Z,150826.48
2018-08-02T13:05:32.118Z,150841.50
2018-08-02T13:08:04.655Z,150837.75
2018-08-02T13:10:35.813Z,150786.33
2018-08-02T13:13:07.320Z,150746.22
2018-08-02T13:15:39.118Z,150662.27
2018-08-02T13:18:10.531Z,150704.86
2018-08-02T13:20:41.719Z,150714.87
2018-08-02T13:23:19.695Z,150706.12
2018-08-02T13:25:50.989Z,150709.88
2018-08-02T13:28:23.246Z,150657.25
2018-08-02T13:30:54.699Z,150659.77
2018-08-02T13:33:26.594Z,150649.75
2018-08-02T13:35:57.596Z,150653.50
2018-08-02T13:38:28.784Z,150666.02
2018-08-02T13:40:59.829Z,150661.02
2018-08-02T13:43:30.952Z,150642.19
2018-08-02T13:46:02.586Z,150642.19
2018-08-02T13:48:33.946Z,150613.36
2018-08-02T13:51:05.257Z,150653.50
2018-08-02T13:53:36.229Z,150634.69
2018-08-02T13:56:07.313Z,150643.44
2018-08-02T13:58:38.620Z,150619.63
2018-08-02T14:01:10.393Z,150625.94
2018-08-02T14:03:41.760Z,150617.13
2018-08-02T14:06:14.082Z,150644.70
2018-08-02T14:08:47.040Z,150647.25
2018-08-02T14:11:18.383Z,150582.08
2018-08-02T14:13:50.274Z,150554.50
2018-08-02T14:16:21.304Z,150630.94
2018-08-02T14:18:52.392Z,150642.19
2018-08-02T14:21:23.811Z,150613.36
2018-08-02T14:23:54.816Z,150614.62
2018-08-02T14:26:27.183Z,150603.36
2018-08-02T14:28:58.281Z,150592.09
2018-08-02T14:31:31.017Z,150582.08
2018-08-02T14:34:02.278Z,150570.78
2018-08-02T14:36:34.897Z,150514.42
2018-08-02T14:39:09.045Z,150531.98
2018-08-02T14:41:40.660Z,150573.28
2018-08-02T14:44:11.816Z,150572.03
2018-08-02T14:46:43.121Z,150589.59
2018-08-02T14:49:15.806Z,150595.84
2018-08-02T14:51:50.097Z,150529.48
2018-08-02T14:54:21.179Z,150533.23
2018-08-02T14:56:52.347Z,150524.44
2018-08-02T14:59:23.751Z,150510.67
2018-08-02T15:01:54.849Z,150513.17
2018-08-02T15:04:25.968Z,150544.50
2018-08-02T15:06:57.451Z,150496.91
2018-08-02T15:09:28.451Z,150476.80
2018-08-02T15:11:59.690Z,150503.17
2018-08-02T15:14:30.752Z,150494.41
2018-08-02T15:17:02.093Z,150519.44
2018-08-02T15:19:33.381Z,150499.41
2018-08-02T15:22:04.642Z,150468.05
2018-08-02T15:24:36.715Z,150464.30
2018-08-02T15:27:07.830Z,150483.09
2018-08-02T15:29:38.907Z,150464.30
2018-08-02T15:32:11.904Z,150438.03
2018-08-02T15:34:43.159Z,150435.53
2018-08-02T15:37:15.094Z,150431.78
2018-08-02T15:39:48.956Z,150392.95
2018-08-02T15:42:20.109Z,150433.03
2018-08-02T15:44:51.419Z,150430.47
2018-08-02T15:47:22.868Z,150419.22
2018-08-02T15:49:55.053Z,150409.22
2018-08-02T15:52:26.434Z,150404.20
2018-08-02T15:54:58.883Z,150397.95
2018-08-02T15:57:30.345Z,150406.72
2018-08-02T16:00:01.477Z,150384.20
2018-08-02T16:02:33.243Z,150370.39
2018-08-02T16:05:04.604Z,150361.64
2018-08-02T16:07:36.759Z,150375.39
2018-08-02T16:10:08.119Z,150386.70
2018-08-02T16:12:39.279Z,150404.20
2018-08-02T16:15:12.278Z,150391.70
2018-08-02T16:17:43.467Z,150371.64
2018-08-02T16:20:14.939Z,150306.53
2018-08-02T16:22:46.054Z,150309.03
2018-08-02T16:25:17.153Z,150295.27
2018-08-02T16:27:48.633Z,150330.28
2018-08-02T16:30:19.976Z,150340.38
2018-08-02T16:32:51.361Z,150364.14
2018-08-02T16:35:23.117Z,150301.53
2018-08-02T16:37:54.668Z,150327.78
2018-08-02T16:40:25.858Z,150324.03
2018-08-02T16:42:57.475Z,150342.88
2018-08-02T16:45:28.587Z,150281.47
2018-08-02T16:48:00.087Z,150275.22
2018-08-02T16:50:31.471Z,150253.97
2018-08-02T16:53:02.733Z,150222.66
2018-08-02T16:55:35.676Z,150232.66
2018-08-02T16:58:06.631Z,150226.41
2018-08-02T17:00:39.050Z,150187.61
2018-08-02T17:03:10.355Z,150181.36
2018-08-02T17:05:43.235Z,150156.31
2018-08-02T17:08:15.121Z,150151.31
2018-08-02T17:10:47.029Z,150123.78
2018-08-02T17:13:18.610Z,150101.28
2018-08-02T17:15:49.724Z,150063.75
2018-08-02T17:18:21.178Z,150052.50
2018-08-02T17:20:52.278Z,150016.22
2018-08-02T17:23:23.490Z,150013.72
2018-08-02T17:25:55.723Z,149979.89
2018-08-02T17:28:26.814Z,149951.11
2018-08-02T17:30:57.620Z,149956.11
2018-08-02T17:33:30.069Z,149936.13
2018-08-02T17:36:02.132Z,149943.61
2018-08-02T17:38:33.481Z,149903.59
2018-08-02T17:41:06.151Z,149888.61
2018-08-02T17:43:37.865Z,149898.59
2018-08-02T17:46:09.779Z,149888.61
2018-08-02T17:48:41.379Z,149878.61
2018-08-02T17:51:13.550Z,149902.34
2018-08-02T17:53:44.562Z,149904.84
2018-08-02T17:56:15.599Z,149906.09
2018-08-02T17:58:46.640Z,149914.89
2018-08-02T18:01:18.792Z,149896.09
2018-08-02T18:03:52.534Z,149908.59
2018-08-02T18:06:23.972Z,149887.36
2018-08-02T18:08:56.550Z,149869.88
2018-08-02T18:11:27.765Z,149844.84
2018-08-02T18:13:59.843Z,149779.81
2018-08-02T18:16:31.181Z,149767.33
2018-08-02T18:19:02.330Z,149774.81
2018-08-02T18:21:34.647Z,149774.81
2018-08-02T18:24:05.871Z,149732.31
2018-08-02T18:26:38.407Z,149752.30
2018-08-02T18:29:09.902Z,149763.53
2018-08-02T18:31:40.931Z,149761.03
2018-08-02T18:34:12.463Z,149741.06
2018-08-02T18:36:43.791Z,149754.80
2018-08-02T18:39:14.961Z,149749.80
2018-08-02T18:41:46.067Z,149741.06
2018-08-02T18:44:17.435Z,149747.31
2018-08-02T18:46:50.267Z,149716.05
2018-08-02T18:49:21.586Z,149721.08
2018-08-02T18:51:53.550Z,149737.31
2018-08-02T18:54:24.810Z,149782.31
2018-08-02T18:56:56.291Z,149803.53
2018-08-02T18:59:28.549Z,149834.81
2018-08-02T19:02:00.615Z,149824.81
2018-08-02T19:04:31.620Z,149821.06
2018-08-02T19:07:03.723Z,149828.56
2018-08-02T19:09:40.193Z,149833.56
2018-08-02T19:12:12.654Z,149853.59
2018-08-02T19:14:43.705Z,149854.84
2018-08-02T19:17:14.680Z,149841.05
2018-08-02T19:19:46.707Z,149851.09
2018-08-02T19:22:17.667Z,149828.56
2018-08-02T19:24:48.563Z,149808.53
2018-08-02T19:27:20.363Z,149808.53
2018-08-02T19:29:52.451Z,149794.80
2018-08-02T19:32:23.622Z,149781.06
2018-08-02T19:34:55.612Z,149768.58
2018-08-02T19:37:27.748Z,149766.03
2018-08-02T19:39:59.228Z,149752.30
2018-08-02T19:42:30.982Z,149732.31
2018-08-02T19:45:02.261Z,149731.08
2018-08-02T19:47:33.465Z,149737.31
2018-08-02T19:50:04.893Z,149717.30
2018-08-02T19:52:37.752Z,149703.56
2018-08-02T19:55:09.090Z,149697.31
2018-08-02T19:57:40.186Z,149709.80
2018-08-02T20:00:12.896Z,149701.06
2018-08-02T20:02:45.090Z,149708.55
2018-08-02T20:05:16.549Z,149698.56
2018-08-02T20:07:49.098Z,149711.05
2018-08-02T20:10:21.159Z,149712.30
2018-08-02T20:12:52.500Z,149703.56
2018-08-02T20:15:24.361Z,149699.81
2018-08-02T20:17:56.530Z,149682.34
2018-08-02T20:20:30.505Z,149681.09
2018-08-02T20:23:02.599Z,149678.59
2018-08-02T20:32:23.073Z,149626.08
2018-08-02T20:34:54.844Z,149626.08
2018-08-02T20:37:26.202Z,149631.06
2018-08-02T20:39:58.764Z,149618.53
2018-08-02T20:42:32.717Z,149629.81
2018-08-02T20:45:06.149Z,149616.03
2018-08-02T20:47:41.996Z,149613.55
2018-08-02T20:50:15.415Z,149631.06
2018-08-02T20:52:49.668Z,149636.06
2018-08-02T20:55:20.800Z,149613.55
2018-08-02T20:57:52.249Z,149611.05
2018-08-02T21:00:23.634Z,149601.06
2018-08-02T21:02:54.936Z,149616.03
2018-08-02T21:05:26.131Z,149621.03
2018-08-02T21:07:57.020Z,149608.55
2018-08-02T21:10:28.497Z,149608.55
2018-08-02T21:12:59.542Z,149606.06
2018-08-02T21:15:30.608Z,149599.81
2018-08-02T21:18:01.863Z,149591.08
2018-08-02T21:20:34.167Z,149584.84
2018-08-02T21:23:05.190Z,149573.56
2018-08-02T21:25:36.215Z,149562.33
2018-08-02T21:28:07.498Z,149561.08
2018-08-02T21:30:38.864Z,149568.56
2018-08-02T21:33:10.818Z,149552.34
2018-08-02T21:35:42.969Z,149551.09
2018-08-02T21:38:15.772Z,149563.58
2018-08-02T21:40:46.923Z,149563.58
2018-08-02T21:43:18.602Z,149564.81
2018-08-02T21:45:50.537Z,149543.61
2018-08-02T21:48:22.005Z,149536.13
2018-08-02T21:50:54.151Z,149521.11
2018-08-02T21:53:25.451Z,149513.62
2018-08-02T21:55:56.491Z,149496.16
2018-08-02T21:58:27.720Z,149494.91
2018-08-02T22:01:00.276Z,149481.08
2018-08-02T22:03:32.957Z,149487.36
2018-08-02T22:06:10.171Z,149471.09
2018-08-02T22:08:42.591Z,149466.11
2018-08-02T22:11:13.713Z,149448.64
2018-08-02T22:13:49.560Z,149458.63
2018-08-02T22:16:26.077Z,149458.63
2018-08-02T22:18:58.527Z,149454.88
2018-08-02T22:21:30.464Z,149448.64
2018-08-02T22:24:02.446Z,149454.88
2018-08-02T22:26:33.732Z,149436.17
2018-08-02T22:29:05.173Z,149433.63
2018-08-02T22:31:36.409Z,149418.66
2018-08-02T22:34:07.619Z,149404.94
2018-08-02T22:36:38.844Z,149418.66
2018-08-02T22:39:10.627Z,149392.47
2018-08-02T22:41:41.636Z,149394.95
2018-08-02T22:44:13.354Z,149382.44
2018-08-02T22:46:44.503Z,149369.97
2018-08-02T22:49:15.747Z,149372.45
2018-08-02T22:51:47.636Z,149376.20
2018-08-02T22:54:18.804Z,149361.23
2018-08-02T22:56:51.092Z,149361.23
2018-08-02T22:59:22.994Z,149335.00
2018-08-02T23:01:54.418Z,149325.02
2018-08-02T23:04:25.627Z,149300.03
2018-08-02T23:06:56.822Z,149288.75
2018-08-02T23:09:27.882Z,149286.25
2018-08-02T23:11:59.258Z,149288.75
2018-08-02T23:14:32.159Z,149283.77
2018-08-02T23:17:03.997Z,149258.83
2018-08-02T23:19:35.090Z,149271.30
2018-08-02T23:22:07.193Z,149257.59
2018-08-02T23:24:38.358Z,149255.09
2018-08-02T23:27:09.337Z,149243.81
2018-08-02T23:29:40.512Z,149237.59
2018-08-02T23:32:12.348Z,149237.59
2018-08-02T23:34:43.312Z,149218.88
2018-08-02T23:37:14.926Z,149223.87
2018-08-02T23:39:47.486Z,149212.66
2018-08-02T23:42:19.093Z,149210.16
2018-08-02T23:44:51.274Z,149205.17
2018-08-02T23:47:22.185Z,149208.91
2018-08-02T23:49:53.106Z,149215.14
2018-08-02T23:52:24.304Z,149205.17
2018-08-02T23:54:55.996Z,149187.67
2018-08-02T23:57:26.964Z,149159.00
2018-08-02T23:59:57.956Z,149137.75
